Cimarron, CO (81220)

6:38 PM MDT on September 19, 2014 (GMT -0600)
MAP MONTROSE (P029) CO PSD | Change Station
CLOSE
Current Station
Personal Weather Station
Location: Montrose, CO
Elevation: 8057 ft
Nearby Weather Stations

Elev 8057 ft 38.44 °N, 107.64 °W | Updated 38 minutes ago

Partly Cloudy
Partly Cloudy
69 °F
Feels Like 69 °F
N
5
Wind Variable Wind from West
Gusts 0.0 mph

Today
High -- | Low -- °F
--% Chance of Precip.
Yesterday
High -- | Low -- °F
Precip. -- in
6:55 AM 7:11 PM
Waning Crescent, 16% visible
Pressure 30.18 in
Visibility 10.0 miles
Clouds Clear
Dew Point 39 °F
Humidity 33%
Rainfall -999.00 in
Snow Depth 0 in , 0 in , 3 in
UV 0 out of 12
Pollen 5.50 out of 12
Air Quality Not available.
Flu Activity Not available.
METAR KGUC 200035Z AUTO 36006KT 10SM CLR 23/03 A3018 RMK AO1

More Conditions Fewer Conditions

Pressure 30.18 in
Visibility 10.0 miles
Clouds Clear
Dew Point 39 °F
Humidity 33%
Rainfall -999.00 in
Snow Depth 0 in , 0 in , 3 in
UV 0 out of 12
Pollen 5.50 out of 12
Air Quality Not available.
Flu Activity Not available.
METAR KGUC 200035Z AUTO 36006KT 10SM CLR 23/03 A3018 RMK AO1

More Conditions Fewer Conditions

10-Day Weather Forecast

Almanac

Astronomy

Sep. 19, 2014 Rise Set
Actual Time 6:55 AM MDT 7:11 PM MDT
Civil Twilight 6:28 AM MDT 7:37 PM MDT
Nautical Twilight 5:57 AM MDT 8:08 PM MDT
Astronomical Twilight 5:25 AM MDT 8:40 PM MDT
Moon 2:45 AM MDT (9/19) 4:39 PM MDT (9/19)
Length of Visible Light 13h 09m
Length of Day
12h 16m
Tomorrow will be 2m 28s shorter.
Waning Crescent, 16% of the Moon is Illuminated
Today
Waning Crescent
Sep 24
New
Oct 1
First Quarter
Oct 8
Full
Oct 15
Last Quarter

Today's Extremes

State Highs State Lows

Community

WunderPhotos

Upload Photos

1,754,744 photos uploaded!

WunderBlogs® & News

Nearby

Snow Depth

Station Depth Elevation
Lake Irene 0 in 10700 ft
El Diente Peak 0 in 10200 ft
Lone Cone 3 in 9600 ft
Apishapa 0 in 10000 ft
Rough And Tumble 0 in 10360 ft

Earthquake Activity

City Distance Mag. Time & Date
No recent earthquake activity has been reported nearby.
Minimum magnitude displayed is 2.5.

Coastal Water Temperatures

Place Temperature
No Stations Reporting

Nearby Weather Stations